Time,TemperatureF,DewpointF,PressureIn,WindDirection,WindDirectionDegrees,WindSpeedMPH,WindSpeedGustMPH,Humidity,HourlyPrecipIn,Conditions,Clouds,dailyrainin,SoftwareType,DateUTC
2013-03-15 00:06:00,0.0,-13.0,30.35,SSE,156,0.0,1.0,54,0.00,,,0.00,weatherlink.com 1.10,2013-03-15 08:06:00,
2013-03-15 00:21:00,-0.4,-13.0,30.35,SE,146,0.0,1.0,55,0.00,,,0.00,weatherlink.com 1.10,2013-03-15 08:21:00,
2013-03-15 00:37:00,-1.1,-14.0,30.35,SSE,147,0.0,0.0,55,0.00,,,0.00,weatherlink.com 1.10,2013-03-15 08:37:00,
2013-03-15 00:52:00,-1.2,-14.0,30.34,West,270,0.0,1.0,54,0.00,,,0.00,weatherlink.com 1.10,2013-03-15 08:52:00,
2013-03-15 01:07:00,-1.4,-14.0,30.34,West,274,0.0,1.0,56,0.00,,,0.00,weatherlink.com 1.10,2013-03-15 09:07:00,
2013-03-15 01:22:00,-2.2,-14.0,30.34,ENE,76,0.0,1.0,56,0.00,,,0.00,weatherlink.com 1.10,2013-03-15 09:22:00,
2013-03-15 01:37:00,-1.8,-14.0,30.34,ENE,59,0.0,0.0,56,0.00,,,0.00,weatherlink.com 1.10,2013-03-15 09:37:00,
2013-03-15 01:52:00,-1.2,-14.0,30.33,ENE,60,0.0,0.0,54,0.00,,,0.00,weatherlink.com 1.10,2013-03-15 09:52:00,
2013-03-15 02:07:00,-1.6,-15.0,30.33,NE,44,0.0,1.0,54,0.00,,,0.00,weatherlink.com 1.10,2013-03-15 10:07:00,
2013-03-15 02:22:00,-1.5,-15.0,30.33,NE,44,0.0,1.0,53,0.00,,,0.00,weatherlink.com 1.10,2013-03-15 10:22:00,
2013-03-15 02:37:00,-1.8,-15.0,30.32,NE,44,0.0,1.0,54,0.00,,,0.00,weatherlink.com 1.10,2013-03-15 10:37:00,
2013-03-15 02:52:00,-2.7,-15.0,30.32,NE,43,0.0,0.0,57,0.00,,,0.00,weatherlink.com 1.10,2013-03-15 10:52:00,
2013-03-15 03:07:00,-3.3,-15.0,30.32,NNE,27,0.0,1.0,58,0.00,,,0.00,weatherlink.com 1.10,2013-03-15 11:07:00,
2013-03-15 03:22:00,-4.3,-15.0,30.31,North,356,0.0,1.0,61,0.00,,,0.00,weatherlink.com 1.10,2013-03-15 11:22:00,
2013-03-15 03:37:00,-3.7,-14.0,30.31,North,4,0.0,1.0,62,0.00,,,0.00,weatherlink.com 1.10,2013-03-15 11:37:00,
2013-03-15 03:52:00,-3.4,-14.0,30.30,NNW,337,0.0,1.0,60,0.00,,,0.00,weatherlink.com 1.10,2013-03-15 11:52:00,
2013-03-15 04:08:00,-3.7,-14.0,30.30,North,360,0.0,1.0,61,0.00,,,0.00,weatherlink.com 1.10,2013-03-15 12:08:00,
2013-03-15 04:23:00,-3.2,-15.0,30.30,NW,313,0.0,1.0,58,0.00,,,0.00,weatherlink.com 1.10,2013-03-15 12:23:00,
2013-03-15 04:38:00,-3.4,-15.0,30.29,NNE,20,0.0,1.0,58,0.00,,,0.00,weatherlink.com 1.10,2013-03-15 12:38:00,
2013-03-15 04:53:00,-3.2,-15.0,30.29,NNW,347,0.0,1.0,56,0.00,,,0.00,weatherlink.com 1.10,2013-03-15 12:53:00,
2013-03-15 05:08:00,-3.2,-15.0,30.28,North,9,0.0,1.0,56,0.00,,,0.00,weatherlink.com 1.10,2013-03-15 13:08:00,
2013-03-15 05:23:00,-3.5,-15.0,30.28,NE,47,0.0,1.0,58,0.00,,,0.00,weatherlink.com 1.10,2013-03-15 13:23:00,
2013-03-15 05:38:00,-3.9,-15.0,30.27,WNW,286,0.0,2.0,60,0.00,,,0.00,weatherlink.com 1.10,2013-03-15 13:38:00,
2013-03-15 05:53:00,-3.8,-15.0,30.27,NW,323,0.0,1.0,58,0.00,,,0.00,weatherlink.com 1.10,2013-03-15 13:53:00,
2013-03-15 06:08:00,-3.9,-15.0,30.27,North,359,0.0,1.0,59,0.00,,,0.00,weatherlink.com 1.10,2013-03-15 14:08:00,
2013-03-15 06:23:00,-3.9,-15.0,30.26,NNE,18,0.0,1.0,58,0.00,,,0.00,weatherlink.com 1.10,2013-03-15 14:23:00,
2013-03-15 06:38:00,-4.2,-15.0,30.26,North,354,0.0,1.0,59,0.00,,,0.00,weatherlink.com 1.10,2013-03-15 14:38:00,
2013-03-15 06:53:00,-4.8,-15.0,30.25,NNE,27,0.0,1.0,61,0.00,,,0.00,weatherlink.com 1.10,2013-03-15 14:53:00,
2013-03-15 07:08:00,-5.4,-15.0,30.25,NNE,16,0.0,1.0,63,0.00,,,0.00,weatherlink.com 1.10,2013-03-15 15:08:00,
2013-03-15 07:24:00,-5.5,-15.0,30.24,NNW,344,0.0,1.0,63,0.00,,,0.00,weatherlink.com 1.10,2013-03-15 15:24:00,
2013-03-15 07:39:00,-4.7,-16.0,30.24,North,352,0.0,1.0,59,0.00,,,0.00,weatherlink.com 1.10,2013-03-15 15:39:00,
2013-03-15 07:54:00,-4.5,-16.0,30.24,NNE,18,0.0,1.0,58,0.00,,,0.00,weatherlink.com 1.10,2013-03-15 15:54:00,
2013-03-15 08:09:00,-4.4,-17.0,30.23,NW,313,0.0,1.0,56,0.00,,,0.00,weatherlink.com 1.10,2013-03-15 16:09:00,
2013-03-15 08:24:00,-4.4,-17.0,30.23,North,356,0.0,1.0,56,0.00,,,0.00,weatherlink.com 1.10,2013-03-15 16:24:00,
2013-03-15 08:39:00,-4.3,-16.0,30.23,NNE,17,0.0,0.0,56,0.00,,,0.00,weatherlink.com 1.10,2013-03-15 16:39:00,
2013-03-15 08:54:00,-4.3,-16.0,30.22,NNW,342,0.0,1.0,57,0.00,,,0.00,weatherlink.com 1.10,2013-03-15 16:54:00,
2013-03-15 09:09:00,-3.7,-16.0,30.22,North,358,0.0,0.0,56,0.00,,,0.00,weatherlink.com 1.10,2013-03-15 17:09:00,
2013-03-15 09:24:00,-3.3,-15.0,30.22,West,271,0.0,1.0,56,0.00,,,0.00,weatherlink.com 1.10,2013-03-15 17:24:00,
2013-03-15 09:39:00,-2.3,-15.0,30.22,NW,314,0.0,0.0,54,0.00,,,0.00,weatherlink.com 1.10,2013-03-15 17:39:00,
2013-03-15 09:54:00,-0.2,-14.0,30.21,NW,312,0.0,1.0,52,0.00,,,0.00,weatherlink.com 1.10,2013-03-15 17:54:00,
2013-03-15 10:09:00,0.7,-14.0,30.21,North,352,0.0,1.0,50,0.00,,,0.00,weatherlink.com 1.10,2013-03-15 18:09:00,
2013-03-15 10:24:00,1.6,-14.0,30.20,NW,310,0.0,1.0,49,0.00,,,0.00,weatherlink.com 1.10,2013-03-15 18:24:00,
2013-03-15 10:39:00,2.5,-13.0,30.20,WNW,288,0.0,1.0,48,0.00,,,0.00,weatherlink.com 1.10,2013-03-15 18:39:00,
2013-03-15 10:55:00,3.8,-13.0,30.19,SW,215,0.0,1.0,46,0.00,,,0.00,weatherlink.com 1.10,2013-03-15 18:55:00,
2013-03-15 11:25:00,7.4,-12.0,30.18,WSW,242,0.0,4.0,41,0.00,,,0.00,weatherlink.com 1.10,2013-03-15 19:25:00,
2013-03-15 11:55:00,10.2,-10.0,30.17,NW,307,0.0,4.0,40,0.00,,,0.00,weatherlink.com 1.10,2013-03-15 19:55:00,
2013-03-15 12:10:00,12.1,-10.0,30.16,ENE,73,0.0,3.0,37,0.00,,,0.00,weatherlink.com 1.10,2013-03-15 20:10:00,
2013-03-15 12:25:00,13.4,-9.0,30.16,SSE,160,0.0,1.0,37,0.00,,,0.00,weatherlink.com 1.10,2013-03-15 20:25:00,
2013-03-15 12:40:00,14.9,-9.0,30.16,SE,141,0.0,1.0,34,0.00,,,0.00,weatherlink.com 1.10,2013-03-15 20:40:00,
2013-03-15 12:55:00,16.1,-8.0,30.16,East,86,0.0,2.0,33,0.00,,,0.00,weatherlink.com 1.10,2013-03-15 20:55:00,
2013-03-15 13:10:00,17.0,-8.0,30.15,East,91,2.0,2.0,33,0.00,,,0.00,weatherlink.com 1.10,2013-03-15 21:10:00,
2013-03-15 13:26:00,17.5,-8.0,30.14,NW,313,1.0,3.0,32,0.00,,,0.00,weatherlink.com 1.10,2013-03-15 21:26:00,
2013-03-15 13:41:00,18.3,-9.0,30.13,ENE,73,3.0,6.0,29,0.00,,,0.00,weatherlink.com 1.10,2013-03-15 21:41:00,
2013-03-15 13:56:00,19.4,-7.0,30.13,West,262,0.0,7.0,30,0.00,,,0.00,weatherlink.com 1.10,2013-03-15 21:56:00,
2013-03-15 14:56:00,20.9,-6.0,30.11,ENE,57,0.0,4.0,30,0.00,,,0.00,weatherlink.com 1.10,2013-03-15 22:56:00,
2013-03-15 15:11:00,21.2,-7.0,30.11,East,91,2.0,4.0,28,0.00,,,0.00,weatherlink.com 1.10,2013-03-15 23:11:00,
2013-03-15 15:26:00,21.6,-6.0,30.10,ENE,57,0.0,3.0,30,0.00,,,0.00,weatherlink.com 1.10,2013-03-15 23:26:00,
2013-03-15 15:41:00,21.6,-7.0,30.09,South,174,0.0,8.0,28,0.00,,,0.00,weatherlink.com 1.10,2013-03-15 23:41:00,
2013-03-15 15:56:00,21.8,-4.0,30.10,SE,127,0.0,2.0,32,0.00,,,0.00,weatherlink.com 1.10,2013-03-15 23:56:00,
2013-03-15 16:11:00,21.6,-6.0,30.10,ESE,107,1.0,4.0,29,0.00,,,0.00,weatherlink.com 1.10,2013-03-16 00:11:00,
2013-03-15 16:26:00,21.3,-5.0,30.09,ESE,107,1.0,7.0,31,0.00,,,0.00,weatherlink.com 1.10,2013-03-16 00:26:00,
2013-03-15 16:41:00,20.9,-7.0,30.09,SSW,212,0.0,4.0,29,0.00,,,0.00,weatherlink.com 1.10,2013-03-16 00:41:00,
2013-03-15 16:57:00,20.3,-5.0,30.09,SSE,148,0.0,2.0,32,0.00,,,0.00,weatherlink.com 1.10,2013-03-16 00:57:00,
2013-03-15 17:12:00,19.9,-5.0,30.09,ENE,65,0.0,2.0,33,0.00,,,0.00,weatherlink.com 1.10,2013-03-16 01:12:00,
2013-03-15 17:27:00,19.4,-7.0,30.09,NNE,17,0.0,5.0,31,0.00,,,0.00,weatherlink.com 1.10,2013-03-16 01:27:00,
2013-03-15 17:42:00,18.8,-7.0,30.09,SSW,201,0.0,3.0,32,0.00,,,0.00,weatherlink.com 1.10,2013-03-16 01:42:00,
2013-03-15 17:57:00,18.2,-6.0,30.09,West,264,0.0,3.0,34,0.00,,,0.00,weatherlink.com 1.10,2013-03-16 01:57:00,
2013-03-15 18:12:00,17.3,-4.0,30.09,West,266,0.0,2.0,38,0.00,,,0.00,weatherlink.com 1.10,2013-03-16 02:12:00,
2013-03-15 18:27:00,16.6,-6.0,30.09,WSW,249,0.0,2.0,37,0.00,,,0.00,weatherlink.com 1.10,2013-03-16 02:27:00,
2013-03-15 18:42:00,15.7,-5.0,30.09,ESE,117,0.0,1.0,39,0.00,,,0.00,weatherlink.com 1.10,2013-03-16 02:42:00,
2013-03-15 18:57:00,14.5,-5.0,30.09,ESE,106,0.0,1.0,41,0.00,,,0.00,weatherlink.com 1.10,2013-03-16 02:57:00,
2013-03-15 19:12:00,13.5,-5.0,30.10,SW,235,0.0,1.0,43,0.00,,,0.00,weatherlink.com 1.10,2013-03-16 03:12:00,
2013-03-15 19:27:00,12.8,-7.0,30.10,ENE,59,0.0,1.0,40,0.00,,,0.00,weatherlink.com 1.10,2013-03-16 03:27:00,
2013-03-15 19:42:00,11.6,-7.0,30.10,ENE,61,0.0,0.0,44,0.00,,,0.00,weatherlink.com 1.10,2013-03-16 03:42:00,
2013-03-15 19:57:00,10.4,-7.0,30.11,SW,228,0.0,1.0,46,0.00,,,0.00,weatherlink.com 1.10,2013-03-16 03:57:00,
2013-03-15 20:13:00,9.4,-6.0,30.11,West,270,0.0,1.0,50,0.00,,,0.00,weatherlink.com 1.10,2013-03-16 04:13:00,
2013-03-15 20:28:00,8.6,-7.0,30.11,West,270,0.0,1.0,50,0.00,,,0.00,weatherlink.com 1.10,2013-03-16 04:28:00,
2013-03-15 20:43:00,7.9,-8.0,30.12,NE,41,0.0,0.0,49,0.00,,,0.00,weatherlink.com 1.10,2013-03-16 04:43:00,
2013-03-15 21:13:00,6.9,-8.0,30.12,North,356,0.0,1.0,50,0.00,,,0.00,weatherlink.com 1.10,2013-03-16 05:13:00,
2013-03-15 21:28:00,6.1,-8.0,30.12,East,92,0.0,1.0,52,0.00,,,0.00,weatherlink.com 1.10,2013-03-16 05:28:00,
2013-03-15 21:43:00,5.7,-8.0,30.13,ENE,60,0.0,1.0,53,0.00,,,0.00,weatherlink.com 1.10,2013-03-16 05:43:00,
2013-03-15 21:58:00,5.5,-9.0,30.13,NE,37,0.0,1.0,51,0.00,,,0.00,weatherlink.com 1.10,2013-03-16 05:58:00,
2013-03-15 22:13:00,5.1,-10.0,30.13,NE,37,0.0,1.0,51,0.00,,,0.00,weatherlink.com 1.10,2013-03-16 06:13:00,
2013-03-15 22:28:00,4.6,-10.0,30.14,North,350,0.0,1.0,52,0.00,,,0.00,weatherlink.com 1.10,2013-03-16 06:28:00,
2013-03-15 23:13:00,3.1,-10.0,30.14,NNE,25,0.0,1.0,55,0.00,,,0.00,weatherlink.com 1.10,2013-03-16 07:13:00,
2013-03-15 23:28:00,3.0,-11.0,30.15,NNW,333,0.0,0.0,53,0.00,,,0.00,weatherlink.com 1.10,2013-03-16 07:28:00,
2013-03-15 23:44:00,2.9,-10.0,30.16,North,4,0.0,1.0,55,0.00,,,0.00,weatherlink.com 1.10,2013-03-16 07:44:00,
2013-03-15 23:59:00,2.4,-10.0,30.16,North,357,0.0,1.0,56,0.00,,,0.00,weatherlink.com 1.10,2013-03-16 07:59:00,